ZGGG METAR and TAF | Updated Today

ZGGG METAR

Guangzhou Baiyun International Airport

Observation time: 21 min. ago

ZGGG 032200Z 09001MPS CAVOK 10/01 Q1023 NOSIG

Need help? Read our tutorial on how to read METARs or read the parsed version below.

Guangzhou Baiyun International Airport (ZGGG) METAR

  • Weather conditions on Fri, 03 Dec 2021 22:00:00 +0000 (21 min. ago):
  • Present conditions: Dry
  • Clouds: Clear skies
  • Visibility: Greater than 10 km
  • Wind: 90 degrees at 1 knots
  • Temperature: 10 celsius
  • Dew point: 1 celsius
  • Pressure: 1023 millibars
  • Remarks: None


Useful to know...

ZGGG TAF

Guangzhou Baiyun International Airport

TAF ZGGG 031503Z 0318/0418 01003MPS 6000 SCT040 TX22/0407Z TN10/0322Z
Observation time: 7:18 hr. ago
Need help? Read our tutorial on how to read TAFs or read the parsed version below.

Parsed version of TAF for Guangzhou Baiyun International Airport (ZGGG)

  • From 03 December at 18:00 UTC, to day 04 of the month at 18:00 UTC
  • Clouds: Scattered at 1219 meters
  • Visibility: 6000 meters
  • Wind: 10 degrees at 3

Airports near ZGGG

No airports found within 100nm radius.